createdAt,value
2023-05-19T00:04:29.050Z,74.08
2023-05-19T00:06:56.948Z,74.68
2023-05-19T00:09:23.647Z,74.57
2023-05-19T00:14:32.040Z,74.39
2023-05-19T00:17:02.106Z,74.43
2023-05-19T00:19:32.478Z,74.55
2023-05-19T00:21:59.388Z,75.47
2023-05-19T00:24:26.115Z,75.59
2023-05-19T00:26:52.871Z,75.74
2023-05-19T00:29:19.615Z,75.79
2023-05-19T00:31:46.468Z,76.15
2023-05-19T00:34:13.245Z,76.43
2023-05-19T00:36:39.988Z,76.57
2023-05-19T00:39:06.697Z,76.64
2023-05-19T00:41:33.426Z,76.85
2023-05-19T00:44:00.113Z,76.96
2023-05-19T00:46:27.017Z,77.02
2023-05-19T00:48:53.701Z,77.58
2023-05-19T00:51:20.440Z,77.02
2023-05-19T00:53:49.525Z,77.91
2023-05-19T00:56:17.131Z,78.39
2023-05-19T00:58:44.545Z,78.19
2023-05-19T01:01:14.674Z,78.57
2023-05-19T01:03:43.152Z,78.36
2023-05-19T01:06:10.054Z,78.47
2023-05-19T01:08:38.581Z,78.89
2023-05-19T01:11:07.031Z,79.34
2023-05-19T01:13:35.443Z,79.71
2023-05-19T01:16:09.219Z,79.33
2023-05-19T01:18:51.175Z,80.19
2023-05-19T01:21:31.522Z,80.27
2023-05-19T01:24:14.509Z,80.29
2023-05-19T01:27:05.961Z,80.59
2023-05-19T01:29:45.353Z,81.16
2023-05-19T01:32:12.280Z,81.22
2023-05-19T01:34:45.653Z,81.35
2023-05-19T01:37:14.493Z,81.80
2023-05-19T01:39:42.879Z,81.90
2023-05-19T01:42:09.781Z,81.77
2023-05-19T01:44:36.936Z,81.87
2023-05-19T01:47:04.332Z,81.86
2023-05-19T01:49:31.026Z,81.73
2023-05-19T01:51:57.857Z,81.87
2023-05-19T01:54:24.504Z,82.09
2023-05-19T01:56:57.001Z,82.19
2023-05-19T01:59:45.458Z,82.40
2023-05-19T02:02:39.310Z,81.94
2023-05-19T02:05:40.505Z,82.00
2023-05-19T02:08:35.627Z,82.01
2023-05-19T02:11:08.466Z,81.82
2023-05-19T02:13:38.122Z,82.26
2023-05-19T02:16:06.237Z,82.36
2023-05-19T02:18:33.653Z,82.71
2023-05-19T02:21:00.281Z,83.49
2023-05-19T02:23:26.980Z,83.59
2023-05-19T02:25:53.721Z,84.14
2023-05-19T02:28:20.415Z,83.99
2023-05-19T02:30:47.032Z,84.16
2023-05-19T02:33:13.710Z,84.33
2023-05-19T02:35:40.986Z,84.43
2023-05-19T02:38:07.690Z,84.31
2023-05-19T02:40:34.507Z,84.30
2023-05-19T02:43:01.856Z,84.40
2023-05-19T02:45:28.929Z,84.49
2023-05-19T02:47:55.740Z,84.59
2023-05-19T02:50:22.740Z,84.36
2023-05-19T02:52:49.409Z,84.37
2023-05-19T02:55:17.857Z,84.21
2023-05-19T02:57:44.562Z,84.66
2023-05-19T03:00:12.083Z,85.09
2023-05-19T03:02:39.933Z,84.80
2023-05-19T03:05:07.994Z,84.93
2023-05-19T03:07:35.154Z,84.94
2023-05-19T03:10:04.226Z,85.03
2023-05-19T03:12:31.794Z,85.08
2023-05-19T03:14:58.728Z,84.80
2023-05-19T03:17:25.738Z,84.98
2023-05-19T03:19:52.548Z,86.36
2023-05-19T03:22:21.391Z,85.99
2023-05-19T03:24:51.188Z,85.64
2023-05-19T03:27:18.190Z,85.28
2023-05-19T03:29:44.812Z,85.10
2023-05-19T03:32:11.448Z,85.53
2023-05-19T03:34:38.413Z,84.96
2023-05-19T03:37:05.200Z,85.22
2023-05-19T03:39:31.840Z,85.67
2023-05-19T03:41:58.626Z,85.35
2023-05-19T03:44:25.258Z,85.50
2023-05-19T03:46:51.926Z,85.35
2023-05-19T03:49:18.667Z,85.56
2023-05-19T03:51:45.275Z,85.59
2023-05-19T03:54:11.857Z,85.58
2023-05-19T03:56:43.146Z,85.62
2023-05-19T03:59:13.067Z,85.96
2023-05-19T04:01:39.669Z,86.16
2023-05-19T04:04:06.342Z,85.92
2023-05-19T04:06:35.239Z,85.89
2023-05-19T04:09:02.579Z,85.55
2023-05-19T04:11:29.205Z,85.81
2023-05-19T04:13:55.891Z,85.80
2023-05-19T04:16:22.674Z,85.12
2023-05-19T04:18:49.582Z,84.73
2023-05-19T04:21:16.345Z,84.84
2023-05-19T04:23:43.626Z,85.05
2023-05-19T04:26:10.245Z,84.79
2023-05-19T04:28:40.086Z,84.81
2023-05-19T04:31:11.006Z,84.19
2023-05-19T04:33:38.215Z,84.29
2023-05-19T04:36:08.701Z,84.66
2023-05-19T04:38:36.977Z,84.61
2023-05-19T04:41:04.452Z,84.60
2023-05-19T04:43:31.710Z,84.31
2023-05-19T04:46:02.165Z,83.82
2023-05-19T04:48:31.117Z,83.90
2023-05-19T04:50:58.066Z,83.53
2023-05-19T04:53:26.956Z,83.72
2023-05-19T04:55:53.593Z,83.17
2023-05-19T04:58:20.281Z,82.92
2023-05-19T05:00:46.882Z,82.27
2023-05-19T05:03:15.276Z,82.52
2023-05-19T05:05:42.103Z,82.29
2023-05-19T05:08:12.149Z,82.09
2023-05-19T05:10:38.985Z,81.70
2023-05-19T05:13:06.030Z,81.39
2023-05-19T05:15:33.038Z,81.01
2023-05-19T05:18:00.532Z,80.99
2023-05-19T05:20:27.751Z,80.94
2023-05-19T05:22:54.737Z,80.16
2023-05-19T05:25:21.748Z,79.81
2023-05-19T05:27:48.620Z,79.31
2023-05-19T05:30:15.219Z,78.92
2023-05-19T05:32:42.085Z,78.07
2023-05-19T05:35:09.377Z,77.99
2023-05-19T05:37:36.043Z,77.61
2023-05-19T05:40:02.777Z,77.72
2023-05-19T05:42:29.775Z,77.64
2023-05-19T05:44:56.566Z,75.42
2023-05-19T05:47:23.344Z,74.76
2023-05-19T05:49:52.118Z,75.03
2023-05-19T05:52:22.037Z,74.46
2023-05-19T05:54:48.916Z,74.47
2023-05-19T05:57:15.880Z,74.22
2023-05-19T05:59:43.263Z,74.12
2023-05-19T06:02:09.947Z,73.68
2023-05-19T06:04:36.645Z,73.13
2023-05-19T06:07:03.515Z,72.66
2023-05-19T06:09:30.469Z,72.47
2023-05-19T06:12:00.198Z,72.58
2023-05-19T06:14:29.756Z,71.76
2023-05-19T06:17:12.025Z,71.49
2023-05-19T06:20:01.474Z,71.07
2023-05-19T06:22:28.711Z,71.34
2023-05-19T06:24:55.562Z,71.15
2023-05-19T06:27:22.193Z,69.88
2023-05-19T06:33:39.803Z,67.65
2023-05-19T06:36:08.605Z,67.52
2023-05-19T06:38:35.294Z,66.97
2023-05-19T06:41:01.941Z,66.70
2023-05-19T06:43:29.032Z,66.18
2023-05-19T06:45:55.946Z,64.91
2023-05-19T06:48:22.579Z,65.42
2023-05-19T06:50:49.235Z,64.59
2023-05-19T06:53:17.421Z,63.68
2023-05-19T06:55:50.703Z,63.09
2023-05-19T06:58:24.491Z,63.01
2023-05-19T07:00:51.263Z,62.67
2023-05-19T07:03:19.201Z,62.42
2023-05-19T07:05:46.066Z,62.65
2023-05-19T07:08:12.760Z,62.08
2023-05-19T07:10:39.635Z,62.12
2023-05-19T07:13:06.452Z,61.51
2023-05-19T07:15:33.777Z,61.21
2023-05-19T07:18:00.740Z,61.18
2023-05-19T07:20:27.516Z,60.55
2023-05-19T07:23:02.919Z,60.36
2023-05-19T07:25:30.729Z,60.13
2023-05-19T07:27:57.492Z,60.12
2023-05-19T07:30:25.401Z,59.19
2023-05-19T07:32:52.138Z,59.13
2023-05-19T07:35:20.356Z,58.49
2023-05-19T07:37:49.351Z,58.99
2023-05-19T07:40:16.888Z,58.79
2023-05-19T07:42:44.672Z,58.38
2023-05-19T07:45:11.872Z,58.04
2023-05-19T07:47:38.574Z,57.42
2023-05-19T07:50:05.982Z,56.91
2023-05-19T07:52:32.618Z,56.80
2023-05-19T07:54:59.552Z,56.86
2023-05-19T07:57:26.391Z,56.42
2023-05-19T07:59:53.052Z,55.80
2023-05-19T08:02:19.919Z,55.62
2023-05-19T08:04:46.677Z,55.45
2023-05-19T08:07:13.456Z,54.37
2023-05-19T08:09:40.127Z,53.08
2023-05-19T08:12:06.853Z,51.43
2023-05-19T08:14:35.070Z,50.52
2023-05-19T08:17:02.231Z,50.93
2023-05-19T08:19:28.897Z,51.92
2023-05-19T08:21:56.047Z,50.06
2023-05-19T08:24:22.747Z,49.87
2023-05-19T08:26:49.556Z,50.75
2023-05-19T08:29:16.501Z,51.50
2023-05-19T08:31:43.263Z,50.07
2023-05-19T08:34:09.976Z,48.08
2023-05-19T08:36:36.729Z,47.45
2023-05-19T08:39:03.735Z,48.16
2023-05-19T08:41:32.018Z,49.17
2023-05-19T08:43:58.929Z,47.18
2023-05-19T08:46:26.340Z,46.56
2023-05-19T08:49:02.205Z,47.00
2023-05-19T08:51:36.873Z,45.88
2023-05-19T08:54:14.822Z,47.11
2023-05-19T08:56:44.588Z,46.10
2023-05-19T08:59:15.060Z,46.67
2023-05-19T09:01:44.689Z,46.99
2023-05-19T09:04:13.437Z,45.62
2023-05-19T09:06:41.266Z,47.44
2023-05-19T09:09:08.661Z,47.06
2023-05-19T09:11:37.700Z,45.36
2023-05-19T09:14:07.535Z,45.04
2023-05-19T09:16:34.766Z,44.83
2023-05-19T09:19:01.586Z,46.13
2023-05-19T09:21:31.989Z,43.55
2023-05-19T09:24:04.582Z,46.69
2023-05-19T09:26:39.978Z,47.58
2023-05-19T09:29:17.212Z,47.64
2023-05-19T09:32:06.472Z,48.56
2023-05-19T09:34:33.251Z,48.05
2023-05-19T09:37:00.176Z,46.55
2023-05-19T09:39:26.933Z,47.76
2023-05-19T09:41:54.690Z,45.75
2023-05-19T09:44:21.458Z,45.31
2023-05-19T09:46:52.959Z,47.28
2023-05-19T09:49:30.633Z,44.39
2023-05-19T09:52:03.587Z,45.85
2023-05-19T09:54:32.597Z,44.43
2023-05-19T09:57:01.538Z,45.31
2023-05-19T09:59:32.578Z,43.61
2023-05-19T10:02:00.597Z,41.87
2023-05-19T10:04:29.303Z,41.59
2023-05-19T10:07:00.025Z,43.32
2023-05-19T10:09:28.750Z,39.98
2023-05-19T10:11:57.033Z,41.36
2023-05-19T10:14:28.149Z,42.96
2023-05-19T10:16:57.369Z,41.45
2023-05-19T10:19:25.879Z,40.51
2023-05-19T10:21:53.507Z,42.33
2023-05-19T10:24:21.508Z,42.39
2023-05-19T10:27:12.377Z,41.05
2023-05-19T10:29:45.926Z,43.31
2023-05-19T10:32:16.914Z,40.28
2023-05-19T10:35:11.871Z,42.21
2023-05-19T10:37:53.495Z,43.76
2023-05-19T10:40:37.032Z,44.30
2023-05-19T10:43:25.699Z,41.59
2023-05-19T10:45:54.466Z,39.96
2023-05-19T10:48:22.561Z,40.12
2023-05-19T10:50:53.432Z,41.65
2023-05-19T10:53:22.738Z,41.15
2023-05-19T10:55:56.274Z,39.21
2023-05-19T10:58:44.600Z,38.18
2023-05-19T11:01:15.903Z,37.04
2023-05-19T11:03:54.215Z,36.83
2023-05-19T11:06:21.226Z,37.59
2023-05-19T11:08:53.168Z,36.38
2023-05-19T11:11:19.956Z,38.26
2023-05-19T11:13:55.180Z,38.27
2023-05-19T11:16:34.772Z,37.63
2023-05-19T11:19:01.834Z,38.70
2023-05-19T11:21:49.219Z,37.55
2023-05-19T11:24:35.389Z,36.70
2023-05-19T11:27:35.193Z,36.63
2023-05-19T11:30:11.951Z,38.04
2023-05-19T11:32:39.745Z,41.51
2023-05-19T11:35:07.341Z,40.37
2023-05-19T11:37:34.759Z,39.81
2023-05-19T11:40:07.334Z,39.45
2023-05-19T11:42:35.337Z,39.04
2023-05-19T11:45:03.078Z,37.55
2023-05-19T11:47:38.825Z,36.81
2023-05-19T11:50:14.125Z,37.11
2023-05-19T11:52:45.112Z,36.79
2023-05-19T11:55:19.167Z,38.31
2023-05-19T11:58:12.207Z,37.13
2023-05-19T12:00:40.901Z,36.84
2023-05-19T12:03:09.287Z,37.77
2023-05-19T12:05:44.410Z,38.29
2023-05-19T12:08:12.219Z,36.55
2023-05-19T12:10:39.459Z,36.46
2023-05-19T12:13:09.160Z,35.72
2023-05-19T12:15:36.853Z,36.72
2023-05-19T12:18:04.001Z,36.72
2023-05-19T12:20:35.968Z,38.27
2023-05-19T12:23:03.771Z,38.76
2023-05-19T12:25:31.667Z,37.79
2023-05-19T12:27:59.992Z,38.62
2023-05-19T12:30:29.055Z,40.17
2023-05-19T12:32:59.837Z,40.46
2023-05-19T12:35:38.829Z,39.38
2023-05-19T12:38:06.560Z,38.33
2023-05-19T12:40:37.884Z,38.05
2023-05-19T12:43:05.652Z,36.49
2023-05-19T12:45:37.348Z,36.60
2023-05-19T12:48:06.824Z,36.97
2023-05-19T12:50:34.910Z,36.62
2023-05-19T12:53:02.286Z,39.19
2023-05-19T12:55:29.047Z,39.36
2023-05-19T12:57:58.311Z,38.11
2023-05-19T13:00:28.702Z,36.18
2023-05-19T13:03:06.093Z,35.95
2023-05-19T13:05:35.344Z,38.46
2023-05-19T13:08:06.923Z,37.24
2023-05-19T13:10:35.080Z,36.93
2023-05-19T13:13:02.993Z,36.93
2023-05-19T13:15:35.580Z,36.35
2023-05-19T13:18:04.469Z,34.75
2023-05-19T13:20:31.402Z,36.29
2023-05-19T13:22:58.322Z,35.74
2023-05-19T13:25:25.611Z,36.34
2023-05-19T13:27:52.939Z,34.84
2023-05-19T13:30:20.850Z,36.33
2023-05-19T13:32:48.089Z,36.44
2023-05-19T13:35:18.774Z,36.97
2023-05-19T13:37:45.642Z,37.27
2023-05-19T13:40:14.234Z,38.25
2023-05-19T13:42:40.959Z,39.27
2023-05-19T13:45:08.361Z,38.68
2023-05-19T13:47:35.267Z,38.38
2023-05-19T13:50:04.696Z,36.83
2023-05-19T13:52:31.788Z,37.20
2023-05-19T13:54:58.576Z,41.50
2023-05-19T13:57:28.359Z,42.25
2023-05-19T14:00:02.663Z,41.63
2023-05-19T14:02:31.058Z,41.46
2023-05-19T14:04:58.015Z,42.68
2023-05-19T14:07:25.914Z,42.58
2023-05-19T14:09:53.078Z,39.23
2023-05-19T14:12:33.860Z,39.65
2023-05-19T14:15:13.352Z,39.54
2023-05-19T14:17:40.109Z,39.95
2023-05-19T14:20:07.767Z,38.25
2023-05-19T14:22:34.472Z,37.48
2023-05-19T14:25:02.306Z,37.49
2023-05-19T14:27:29.065Z,36.84
2023-05-19T14:29:55.865Z,37.51
2023-05-19T14:32:27.960Z,36.84
2023-05-19T14:34:56.466Z,37.13
2023-05-19T14:37:23.239Z,36.60
2023-05-19T14:39:51.480Z,38.49
2023-05-19T14:42:18.389Z,38.47
2023-05-19T14:44:45.517Z,39.09
2023-05-19T14:47:12.789Z,40.12
2023-05-19T14:49:39.653Z,38.59
2023-05-19T14:52:06.554Z,38.70
2023-05-19T14:54:34.087Z,37.78
2023-05-19T14:57:01.767Z,37.77
2023-05-19T14:59:29.783Z,38.11
2023-05-19T15:01:58.992Z,39.89
2023-05-19T15:04:25.888Z,37.65
2023-05-19T15:07:05.795Z,36.95
2023-05-19T15:09:36.341Z,37.07
2023-05-19T15:12:03.142Z,38.31
2023-05-19T15:14:31.574Z,38.81
2023-05-19T15:16:58.726Z,39.63
2023-05-19T15:19:27.554Z,38.47
2023-05-19T15:21:55.796Z,38.61
2023-05-19T15:24:24.348Z,39.37
2023-05-19T15:26:54.784Z,37.83
2023-05-19T15:29:21.932Z,37.33
2023-05-19T15:31:55.957Z,37.15
2023-05-19T15:34:22.685Z,37.39
2023-05-19T15:36:50.865Z,36.99
2023-05-19T15:39:17.530Z,37.97
2023-05-19T15:41:44.341Z,36.81
2023-05-19T15:44:15.062Z,38.79
2023-05-19T15:46:41.871Z,37.22
2023-05-19T15:49:08.667Z,38.30
2023-05-19T15:51:35.402Z,37.01
2023-05-19T15:54:02.105Z,37.26
2023-05-19T15:56:35.211Z,37.94
2023-05-19T15:59:02.206Z,38.67
2023-05-19T16:01:35.241Z,38.30
2023-05-19T16:04:04.039Z,37.78
2023-05-19T16:06:31.305Z,38.51
2023-05-19T16:08:57.997Z,38.64
2023-05-19T16:11:24.570Z,37.36
2023-05-19T16:13:51.167Z,36.76
2023-05-19T16:16:17.995Z,37.21
2023-05-19T16:18:44.952Z,37.80
2023-05-19T16:21:11.517Z,38.33
2023-05-19T16:23:38.741Z,39.60
2023-05-19T16:26:05.362Z,38.81
2023-05-19T16:28:32.726Z,38.78
2023-05-19T16:31:00.317Z,37.87
2023-05-19T16:33:27.311Z,38.66
2023-05-19T16:35:53.985Z,38.35
2023-05-19T16:38:20.590Z,38.48
2023-05-19T16:40:48.309Z,39.71
2023-05-19T16:43:14.912Z,39.56
2023-05-19T16:45:43.302Z,39.17
2023-05-19T16:48:10.650Z,39.09
2023-05-19T16:50:37.538Z,39.37
2023-05-19T16:53:04.316Z,39.50
2023-05-19T16:55:31.018Z,39.21
2023-05-19T16:57:57.824Z,40.31
2023-05-19T17:00:24.511Z,41.72
2023-05-19T17:02:51.274Z,41.36
2023-05-19T17:05:18.033Z,40.69
2023-05-19T17:07:44.666Z,41.55
2023-05-19T17:10:11.285Z,41.78
2023-05-19T17:12:37.890Z,41.52
2023-05-19T17:15:04.870Z,41.97
2023-05-19T17:17:31.667Z,41.37
2023-05-19T17:19:58.323Z,42.65
2023-05-19T17:22:24.950Z,43.15
2023-05-19T17:24:52.035Z,43.64
2023-05-19T17:27:18.702Z,42.21
2023-05-19T17:29:45.368Z,42.90
2023-05-19T17:32:12.041Z,42.17
2023-05-19T17:34:39.398Z,43.67
2023-05-19T17:37:06.137Z,43.32
2023-05-19T17:39:32.839Z,42.68
2023-05-19T17:41:59.570Z,43.23
2023-05-19T17:44:26.782Z,43.23
2023-05-19T17:46:53.405Z,43.80
2023-05-19T17:49:20.287Z,43.85
2023-05-19T17:51:46.964Z,43.85
2023-05-19T17:58:41.563Z,44.59
2023-05-19T18:01:09.121Z,43.98
2023-05-19T18:03:36.444Z,45.12
2023-05-19T18:06:03.359Z,45.21
2023-05-19T18:08:31.884Z,45.42
2023-05-19T18:10:58.864Z,45.39
2023-05-19T18:13:26.255Z,45.98
2023-05-19T18:15:53.149Z,46.07
2023-05-19T18:18:20.028Z,46.00
2023-05-19T18:20:46.848Z,46.11
2023-05-19T18:23:14.445Z,46.00
2023-05-19T18:25:41.252Z,46.21
2023-05-19T18:28:08.182Z,46.96
2023-05-19T18:30:35.828Z,46.88
2023-05-19T18:33:05.072Z,46.74
2023-05-19T18:35:32.020Z,47.13
2023-05-19T18:37:58.760Z,46.98
2023-05-19T18:40:25.589Z,47.46
2023-05-19T18:42:52.309Z,47.39
2023-05-19T18:45:19.222Z,47.63
2023-05-19T18:47:46.566Z,47.83
2023-05-19T18:50:13.512Z,47.80
2023-05-19T18:52:40.644Z,48.30
2023-05-19T18:55:07.816Z,49.01
2023-05-19T18:57:34.618Z,48.84
2023-05-19T19:00:01.829Z,49.44
2023-05-19T19:02:31.274Z,49.56
2023-05-19T19:04:58.152Z,49.98
2023-05-19T19:07:27.220Z,49.96
2023-05-19T19:09:54.653Z,50.22
2023-05-19T19:12:21.485Z,50.48
2023-05-19T19:14:48.367Z,50.67
2023-05-19T19:17:15.277Z,50.69
2023-05-19T19:19:42.135Z,51.01
2023-05-19T19:22:08.874Z,51.13
2023-05-19T19:24:36.053Z,51.40
2023-05-19T19:27:02.875Z,52.16
2023-05-19T19:29:30.479Z,52.03
2023-05-19T19:31:57.375Z,52.29
2023-05-19T19:34:25.205Z,53.02
2023-05-19T19:36:52.142Z,52.91
2023-05-19T19:39:18.905Z,52.83
2023-05-19T19:41:45.856Z,52.89
2023-05-19T19:44:13.696Z,53.16
2023-05-19T19:46:40.634Z,53.08
2023-05-19T19:49:07.411Z,53.24
2023-05-19T19:51:34.358Z,53.61
2023-05-19T19:54:10.704Z,54.24
2023-05-19T19:56:39.117Z,54.30
2023-05-19T19:59:05.894Z,54.42
2023-05-19T20:01:33.900Z,54.88
2023-05-19T20:04:01.124Z,54.76
2023-05-19T20:06:28.161Z,54.93
2023-05-19T20:08:55.011Z,54.92
2023-05-19T20:11:23.944Z,55.17
2023-05-19T20:13:50.786Z,55.70
2023-05-19T20:16:17.468Z,55.77
2023-05-19T20:18:44.895Z,55.68
2023-05-19T20:21:11.749Z,56.59
2023-05-19T20:23:39.832Z,56.71
2023-05-19T20:26:12.370Z,57.31
2023-05-19T20:28:39.958Z,56.86
2023-05-19T20:31:07.022Z,56.80
2023-05-19T20:33:33.708Z,57.17
2023-05-19T20:36:04.908Z,57.04
2023-05-19T20:38:31.606Z,57.11
2023-05-19T20:40:58.240Z,57.36
2023-05-19T20:43:25.009Z,57.58
2023-05-19T20:45:51.684Z,58.00
2023-05-19T20:48:19.451Z,58.21
2023-05-19T20:50:46.478Z,58.17
2023-05-19T20:53:13.263Z,58.38
2023-05-19T20:55:41.668Z,58.43
2023-05-19T20:58:08.389Z,58.63
2023-05-19T21:00:37.972Z,58.58
2023-05-19T21:03:04.950Z,58.77
2023-05-19T21:05:32.908Z,58.82
2023-05-19T21:07:59.648Z,59.45
2023-05-19T21:10:26.715Z,59.80
2023-05-19T21:12:53.603Z,59.72
2023-05-19T21:15:20.811Z,59.69
2023-05-19T21:17:47.755Z,59.78
2023-05-19T21:20:14.510Z,59.85
2023-05-19T21:22:41.300Z,60.27
2023-05-19T21:25:08.403Z,60.47
2023-05-19T21:27:36.448Z,60.33
2023-05-19T21:30:03.420Z,60.33
2023-05-19T21:32:30.580Z,60.63
2023-05-19T21:35:11.240Z,60.67
2023-05-19T21:37:57.756Z,60.72
2023-05-19T21:40:36.452Z,60.75
2023-05-19T21:43:06.959Z,61.09
2023-05-19T21:45:33.765Z,61.25
2023-05-19T21:48:00.621Z,61.05
2023-05-19T21:50:27.496Z,61.02
2023-05-19T21:52:54.153Z,60.90
2023-05-19T21:55:22.190Z,61.35
2023-05-19T21:57:48.970Z,61.47
2023-05-19T22:00:15.819Z,61.54
2023-05-19T22:02:42.702Z,61.59
2023-05-19T22:05:09.820Z,61.98
2023-05-19T22:07:36.653Z,61.78
2023-05-19T22:10:03.625Z,62.21
2023-05-19T22:12:32.069Z,62.17
2023-05-19T22:14:58.958Z,62.14
2023-05-19T22:17:25.673Z,62.19
2023-05-19T22:19:52.478Z,62.34
2023-05-19T22:22:19.116Z,62.09
2023-05-19T22:24:45.854Z,62.54
2023-05-19T22:27:12.565Z,62.37
2023-05-19T22:29:39.674Z,62.20
2023-05-19T22:32:07.913Z,62.90
2023-05-19T22:34:34.743Z,62.62
2023-05-19T22:37:02.048Z,62.54
2023-05-19T22:39:28.839Z,62.89
2023-05-19T22:41:55.665Z,62.75
2023-05-19T22:44:22.371Z,62.61
2023-05-19T22:46:49.033Z,62.72
2023-05-19T22:49:15.750Z,62.62
2023-05-19T22:51:42.453Z,62.92
2023-05-19T22:54:09.776Z,63.24
2023-05-19T22:56:36.583Z,63.35
2023-05-19T22:59:03.361Z,63.63
2023-05-19T23:01:30.204Z,63.73
2023-05-19T23:03:56.924Z,64.02
2023-05-19T23:06:23.772Z,63.89
2023-05-19T23:09:01.660Z,63.96
2023-05-19T23:11:28.366Z,64.29
2023-05-19T23:13:55.043Z,64.06
2023-05-19T23:16:22.249Z,64.29
2023-05-19T23:18:49.006Z,64.44
2023-05-19T23:21:15.704Z,64.75
2023-05-19T23:23:42.431Z,64.86
2023-05-19T23:26:09.350Z,65.08
2023-05-19T23:28:36.119Z,65.19
2023-05-19T23:31:02.845Z,65.34
2023-05-19T23:33:29.623Z,65.27
2023-05-19T23:35:56.535Z,65.51
2023-05-19T23:38:23.269Z,65.60
2023-05-19T23:40:50.018Z,65.71
2023-05-19T23:43:16.705Z,66.11
2023-05-19T23:45:43.524Z,66.26
2023-05-19T23:48:10.276Z,66.13
2023-05-19T23:50:36.990Z,66.31
2023-05-19T23:53:06.054Z,66.61
2023-05-19T23:55:32.841Z,66.20
